Time;durP1;ratioP1;P1;durP2;ratioP2;P2;SDS_P1;SDS_P2;PMS_P1;PMS_P2;Temp;Humidity;BMP_temperature;BMP_pressure;BME280_temperature;BME280_humidity;BME280_pressure;Samples;Min_cycle;Max_cycle;Signal;HPM_P1;HPM_P2
2022/07/11 00:00:00;;;;;;;1999.90;999.90;;;;;;;18.00;48.72;96020.31;5031419;28;20021;-66
2022/07/11 00:02:25;;;;;;;1999.90;999.90;;;;;;;18.12;48.33;96019.59;5031361;28;20029;-66
2022/07/11 00:04:50;;;;;;;1999.90;999.90;;;;;;;18.22;47.96;96015.66;5033022;28;20481;-66
2022/07/11 00:07:16;;;;;;;1999.90;999.90;;;;;;;18.23;47.45;96009.97;5030556;28;20029;-65
2022/07/11 00:09:42;;;;;;;1999.90;999.90;;;;;;;18.28;47.42;96009.78;5031634;28;20033;-66
2022/07/11 00:12:08;;;;;;;1999.90;999.90;;;;;;;18.32;47.36;96007.19;5032029;28;20036;-65
2022/07/11 00:14:34;;;;;;;1999.90;999.90;;;;;;;18.46;46.98;96010.38;5030835;28;20189;-66
2022/07/11 00:17:00;;;;;;;1999.90;999.90;;;;;;;18.40;46.72;95995.53;5031256;28;20536;-66
2022/07/11 00:19:25;;;;;;;1999.90;999.90;;;;;;;18.63;46.20;95998.63;5032051;28;20534;-66
2022/07/11 00:21:51;;;;;;;1999.90;999.90;;;;;;;18.55;46.27;95996.81;5031275;28;20075;-65
2022/07/11 00:24:19;;;;;;;1999.90;999.90;;;;;;;18.49;46.15;95998.94;5031586;28;20074;-66
2022/07/11 00:26:45;;;;;;;1999.90;999.90;;;;;;;18.55;45.87;95997.59;5031890;28;20251;-66
2022/07/11 00:29:11;;;;;;;1999.90;999.90;;;;;;;18.74;45.89;96001.72;5030176;28;20104;-66
2022/07/11 00:31:36;;;;;;;1999.90;999.90;;;;;;;18.81;45.65;95994.63;5029779;28;20036;-66
2022/07/11 00:34:02;;;;;;;1999.90;999.90;;;;;;;18.77;44.88;96001.81;5031294;28;20029;-66
2022/07/11 00:36:27;;;;;;;1999.90;999.90;;;;;;;18.73;44.83;95992.03;5031390;28;20052;-65
2022/07/11 00:38:52;;;;;;;1999.90;999.90;;;;;;;18.79;45.09;95993.41;5031456;28;20025;-66
2022/07/11 00:41:18;;;;;;;1999.90;999.90;;;;;;;18.80;44.66;95994.97;5030517;28;20781;-66
2022/07/11 00:43:51;;;;;;;1999.90;999.90;;;;;;;18.85;44.69;95992.84;5031331;28;20032;-66
2022/07/11 00:46:16;;;;;;;1999.90;999.90;;;;;;;18.84;44.71;95982.41;5028738;28;20029;-66
2022/07/11 00:48:41;;;;;;;1999.90;999.90;;;;;;;18.90;44.68;95981.06;5031409;28;20485;-67
2022/07/11 00:51:07;;;;;;;1999.90;999.90;;;;;;;18.95;44.35;95984.31;5031602;28;20032;-66
2022/07/11 00:53:34;;;;;;;1999.90;999.90;;;;;;;18.90;44.29;95981.84;5031447;28;20029;-66
2022/07/11 00:56:00;;;;;;;1999.90;999.90;;;;;;;18.98;44.24;95984.75;5023043;28;20033;-66
2022/07/11 00:58:26;;;;;;;1999.90;999.90;;;;;;;18.95;44.29;95981.63;5021489;28;20033;-66
2022/07/11 01:00:52;;;;;;;1999.90;999.90;;;;;;;18.96;44.05;95974.31;5029646;28;20025;-65
2022/07/11 01:03:17;;;;;;;1999.90;999.90;;;;;;;19.00;44.12;95979.84;5029633;28;20022;-66
2022/07/11 01:05:42;;;;;;;1999.90;999.90;;;;;;;19.00;44.20;95975.22;5031021;28;20104;-66
2022/07/11 01:08:08;;;;;;;1999.90;999.90;;;;;;;19.06;44.21;95975.78;5030576;28;20160;-65
2022/07/11 01:10:34;;;;;;;1999.90;999.90;;;;;;;19.11;44.04;95965.56;5030302;28;20111;-65
2022/07/11 01:13:00;;;;;;;1999.90;999.90;;;;;;;19.07;43.85;95959.25;5030557;28;20047;-66
2022/07/11 01:15:25;;;;;;;1999.90;999.90;;;;;;;19.08;44.34;95966.22;5029858;28;20481;-66
2022/07/11 01:17:53;;;;;;;1999.90;999.90;;;;;;;19.10;44.26;95966.69;5031649;28;20119;-66
2022/07/11 01:20:19;;;;;;;1999.90;999.90;;;;;;;19.12;43.97;95952.84;5029331;28;20383;-66
2022/07/11 01:22:50;;;;;;;1999.90;999.90;;;;;;;19.21;43.80;95962.41;5030193;28;20428;-66
2022/07/11 01:25:29;;;;;;;1999.90;999.90;;;;;;;19.26;43.69;95974.88;5026175;28;20069;-66
2022/07/11 01:27:59;;;;;;;1999.90;999.90;;;;;;;19.21;43.67;95961.63;5028237;28;20026;-66
2022/07/11 01:30:26;;;;;;;1999.90;999.90;;;;;;;19.27;43.75;95967.56;5029029;28;20061;-66
2022/07/11 01:32:53;;;;;;;1999.90;999.90;;;;;;;19.30;43.67;95973.06;5030963;28;20017;-66
2022/07/11 01:35:18;;;;;;;1999.90;999.90;;;;;;;19.11;43.33;95935.88;5022820;28;20025;-66
2022/07/11 01:37:44;;;;;;;1999.90;999.90;;;;;;;19.33;43.60;95960.81;5019661;28;20362;-65
2022/07/11 01:40:10;;;;;;;1999.90;999.90;;;;;;;19.34;43.34;95956.97;5025240;28;20390;-65
2022/07/11 01:42:35;;;;;;;1999.90;999.90;;;;;;;19.36;43.07;95958.22;5031125;28;20113;-66
2022/07/11 01:45:00;;;;;;;1999.90;999.90;;;;;;;19.38;43.32;95963.28;5027863;28;20021;-66
2022/07/11 01:47:26;;;;;;;1999.90;999.90;;;;;;;19.32;43.34;95961.94;5029970;28;20025;-66
2022/07/11 01:49:51;;;;;;;1999.90;999.90;;;;;;;19.28;42.82;95961.81;5029823;28;20029;-65
2022/07/11 01:52:16;;;;;;;1999.90;999.90;;;;;;;19.31;43.31;95961.16;5030618;28;20053;-65
2022/07/11 01:54:42;;;;;;;1999.90;999.90;;;;;;;19.30;43.16;95953.41;5029873;28;20032;-65
2022/07/11 01:57:09;;;;;;;1999.90;999.90;;;;;;;19.30;43.29;95948.78;5029399;28;20026;-66
2022/07/11 01:59:35;;;;;;;1999.90;999.90;;;;;;;19.33;43.38;95958.88;5028660;28;20036;-66
2022/07/11 02:02:00;;;;;;;1999.90;999.90;;;;;;;19.32;43.25;95943.84;5029647;28;20037;-65
2022/07/11 02:04:25;;;;;;;1999.90;999.90;;;;;;;19.35;43.24;95939.69;5029829;28;20021;-66
2022/07/11 02:06:50;;;;;;;1999.90;999.90;;;;;;;19.33;43.32;95933.81;5030664;28;20029;-66
2022/07/11 02:09:16;;;;;;;1999.90;999.90;;;;;;;19.34;43.11;95935.41;5028537;28;20089;-65
2022/07/11 02:11:41;;;;;;;1999.90;999.90;;;;;;;19.37;43.53;95934.72;5029583;28;20036;-66
2022/07/11 02:14:06;;;;;;;1999.90;999.90;;;;;;;19.33;43.68;95934.63;5027813;28;20029;-66
2022/07/11 02:16:32;;;;;;;1999.90;999.90;;;;;;;19.32;43.78;95937.66;5029735;28;20065;-65
2022/07/11 02:18:57;;;;;;;1999.90;999.90;;;;;;;19.16;43.42;95916.78;5029133;28;20029;-66
2022/07/11 02:21:22;;;;;;;1999.90;999.90;;;;;;;19.30;43.46;95935.31;5030253;28;20068;-66
2022/07/11 02:23:48;;;;;;;1999.90;999.90;;;;;;;19.36;43.72;95939.34;5025630;28;20021;-66
2022/07/11 02:26:13;;;;;;;1999.90;999.90;;;;;;;19.41;43.80;95941.81;5010545;28;20113;-67
2022/07/11 02:28:40;;;;;;;1999.90;999.90;;;;;;;19.31;43.60;95944.19;5012365;28;20053;-66
2022/07/11 02:31:05;;;;;;;1999.90;999.90;;;;;;;19.29;43.68;95933.72;5018750;28;20021;-66
2022/07/11 02:33:30;;;;;;;1999.90;999.90;;;;;;;19.36;43.54;95943.94;5028312;28;20048;-66
2022/07/11 02:35:56;;;;;;;1999.90;999.90;;;;;;;19.36;43.69;95939.34;5029209;28;20643;-66
2022/07/11 02:38:21;;;;;;;1999.90;999.90;;;;;;;19.29;43.69;95938.31;5029650;28;20029;-66
2022/07/11 02:40:47;;;;;;;1999.90;999.90;;;;;;;18.94;44.96;95936.13;5029300;28;20091;-66
2022/07/11 02:43:12;;;;;;;1999.90;999.90;;;;;;;19.08;44.53;95949.25;5029341;28;20030;-66
2022/07/11 02:45:37;;;;;;;1999.90;999.90;;;;;;;19.14;44.39;95931.72;5027477;28;20049;-66
2022/07/11 02:48:03;;;;;;;1999.90;999.90;;;;;;;19.18;44.52;95938.78;5018225;28;20383;-66
2022/07/11 02:50:28;;;;;;;1999.90;999.90;;;;;;;19.23;44.30;95945.88;5011976;28;20492;-66
2022/07/11 02:52:54;;;;;;;1999.90;999.90;;;;;;;19.11;44.85;95938.59;5029475;28;20160;-66
2022/07/11 02:55:19;;;;;;;1999.90;999.90;;;;;;;19.22;44.53;95933.50;5028902;28;20390;-66
2022/07/11 02:57:44;;;;;;;1999.90;999.90;;;;;;;19.28;44.44;95945.63;5030106;28;20071;-66
2022/07/11 03:00:13;;;;;;;1999.90;999.90;;;;;;;19.28;44.30;95934.84;5028069;28;20490;-68
2022/07/11 03:02:39;;;;;;;1999.90;999.90;;;;;;;19.27;44.78;95927.88;5024910;28;20030;-66
2022/07/11 03:05:05;;;;;;;1999.90;999.90;;;;;;;19.31;44.67;95928.78;5022655;28;20086;-66
2022/07/11 03:07:30;;;;;;;1999.90;999.90;;;;;;;19.42;44.85;95934.50;5029684;28;20082;-65
2022/07/11 03:09:56;;;;;;;1999.90;999.90;;;;;;;19.48;44.49;95938.50;5027196;28;20658;-66
2022/07/11 03:12:22;;;;;;;1999.90;999.90;;;;;;;19.48;44.29;95936.59;5029615;28;20026;-66
2022/07/11 03:14:48;;;;;;;1999.90;999.90;;;;;;;19.49;44.26;95932.78;5019717;28;20432;-66
2022/07/11 03:17:14;;;;;;;1999.90;999.90;;;;;;;19.49;44.07;95929.28;5026781;28;20465;-66
2022/07/11 03:19:39;;;;;;;1999.90;999.90;;;;;;;19.49;43.86;95932.78;5027035;28;20037;-66
2022/07/11 03:22:04;;;;;;;1999.90;999.90;;;;;;;19.52;44.05;95942.09;5028145;28;20032;-66
2022/07/11 03:24:30;;;;;;;1999.90;999.90;;;;;;;19.49;43.92;95935.47;5028586;28;20059;-66
2022/07/11 03:26:55;;;;;;;1999.90;999.90;;;;;;;19.56;43.62;95934.91;5027462;28;20401;-66
2022/07/11 03:29:21;;;;;;;1999.90;999.90;;;;;;;19.56;43.75;95932.22;5029189;28;20038;-66
2022/07/11 03:31:46;;;;;;;1999.90;999.90;;;;;;;19.58;43.82;95929.16;5028594;28;20029;-66
2022/07/11 03:34:12;;;;;;;1999.90;999.90;;;;;;;19.71;43.45;95933.44;5028265;28;20033;-65
2022/07/11 03:36:37;;;;;;;1999.90;999.90;;;;;;;19.70;43.53;95921.81;5028070;28;20076;-66
2022/07/11 03:39:02;;;;;;;1999.90;999.90;;;;;;;19.68;43.60;95924.09;5028545;28;20029;-66
2022/07/11 03:41:27;;;;;;;1999.90;999.90;;;;;;;19.75;43.77;95939.69;5028755;28;20048;-66
2022/07/11 03:43:53;;;;;;;1999.90;999.90;;;;;;;19.78;43.51;95933.63;5029155;28;20489;-66
2022/07/11 03:46:18;;;;;;;1999.90;999.90;;;;;;;19.76;43.45;95929.69;5025847;28;20029;-66
2022/07/11 03:48:44;;;;;;;1999.90;999.90;;;;;;;19.80;43.48;95931.34;5026516;28;20045;-66
2022/07/11 03:51:09;;;;;;;1999.90;999.90;;;;;;;19.84;43.28;95934.16;5026733;28;20119;-66
2022/07/11 03:53:34;;;;;;;1999.90;999.90;;;;;;;19.83;43.25;95930.69;5013849;28;20083;-65
2022/07/11 03:56:00;;;;;;;1999.90;999.90;;;;;;;19.90;43.30;95930.84;5024210;28;20037;-67
2022/07/11 03:58:25;;;;;;;1999.90;999.90;;;;;;;19.89;42.85;95918.50;5029246;28;20668;-66
2022/07/11 04:00:50;;;;;;;1999.90;999.90;;;;;;;19.93;43.07;95918.59;5026716;28;20049;-66
2022/07/11 04:03:16;;;;;;;1999.90;999.90;;;;;;;20.01;42.94;95928.44;5028014;28;20537;-66
2022/07/11 04:05:41;;;;;;;1999.90;999.90;;;;;;;20.03;42.94;95928.91;5026910;28;20064;-66
2022/07/11 04:08:06;;;;;;;1999.90;999.90;;;;;;;20.01;42.85;95923.03;5028162;28;20648;-66
2022/07/11 04:10:31;;;;;;;1999.90;999.90;;;;;;;20.13;42.81;95933.03;5028600;28;20025;-66
2022/07/11 04:12:57;;;;;;;1999.90;999.90;;;;;;;20.20;42.63;95938.59;5028977;28;20030;-67
2022/07/11 04:15:22;;;;;;;1999.90;999.90;;;;;;;20.20;42.62;95931.28;5027234;28;20091;-66
2022/07/11 04:17:48;;;;;;;1999.90;999.90;;;;;;;20.17;42.67;95932.00;5029047;28;20053;-66
2022/07/11 04:20:13;;;;;;;1999.90;999.90;;;;;;;20.17;42.57;95931.22;5027968;28;20033;-66
2022/07/11 04:22:39;;;;;;;1999.90;999.90;;;;;;;20.27;42.67;95936.09;5028700;28;20032;-66
2022/07/11 04:25:04;;;;;;;1999.90;999.90;;;;;;;20.29;42.53;95931.13;5025928;28;20030;-66
2022/07/11 04:27:29;;;;;;;1999.90;999.90;;;;;;;20.33;42.46;95926.59;5028750;28;20512;-66
2022/07/11 04:29:55;;;;;;;1999.90;999.90;;;;;;;20.47;41.82;95940.50;5027607;28;20390;-67
2022/07/11 04:32:20;;;;;;;1999.90;999.90;;;;;;;20.56;42.10;95934.91;5026409;28;20059;-66
2022/07/11 04:34:46;;;;;;;1999.90;999.90;;;;;;;20.55;41.58;95929.88;5031761;28;20027;-66
2022/07/11 04:37:11;;;;;;;1999.90;999.90;;;;;;;20.70;41.50;95929.09;5030995;28;20029;-66
2022/07/11 04:39:36;;;;;;;1999.90;999.90;;;;;;;20.66;41.39;95918.19;5031020;28;20436;-66
2022/07/11 04:42:02;;;;;;;1999.90;999.90;;;;;;;20.83;41.35;95930.56;5031541;28;20033;-66
2022/07/11 04:44:28;;;;;;;1999.90;999.90;;;;;;;20.90;41.09;95938.84;5031323;28;20029;-66
2022/07/11 04:46:54;;;;;;;1999.90;999.90;;;;;;;21.03;40.77;95934.09;5030303;28;20103;-66
2022/07/11 04:49:19;;;;;;;1999.90;999.90;;;;;;;21.14;40.36;95945.16;5030785;28;20478;-66
2022/07/11 04:51:45;;;;;;;1999.90;999.90;;;;;;;21.15;39.85;95931.31;5030641;28;20458;-66
2022/07/11 04:54:10;;;;;;;1999.90;999.90;;;;;;;21.26;39.87;95951.25;5031176;28;20029;-66
2022/07/11 04:56:37;;;;;;;1999.90;999.90;;;;;;;21.32;39.98;95932.84;5032050;28;20359;-66
2022/07/11 04:59:03;;;;;;;1999.90;999.90;;;;;;;21.47;40.21;95944.78;5021175;28;20031;-66
2022/07/11 05:01:28;;;;;;;1999.90;999.90;;;;;;;21.56;39.84;95947.28;5022072;28;20120;-66
2022/07/11 05:03:54;;;;;;;1999.90;999.90;;;;;;;21.63;39.50;95937.38;5030634;28;20109;-66
2022/07/11 05:06:20;;;;;;;1999.90;999.90;;;;;;;21.77;38.98;95945.81;5030953;28;20014;-66
2022/07/11 05:08:45;;;;;;;1999.90;999.90;;;;;;;21.78;39.28;95944.66;5031158;28;20108;-66
2022/07/11 05:11:11;;;;;;;1999.90;999.90;;;;;;;21.91;39.07;95947.25;5031164;28;20018;-66
2022/07/11 05:13:37;;;;;;;1999.90;999.90;;;;;;;22.07;38.58;95942.53;5029903;28;20087;-66
2022/07/11 05:16:03;;;;;;;1999.90;999.90;;;;;;;22.23;38.48;95964.13;5030737;28;20101;-66
2022/07/11 05:18:28;;;;;;;1999.90;999.90;;;;;;;22.31;38.09;95949.56;5029634;28;20490;-66
2022/07/11 05:20:53;;;;;;;1999.90;999.90;;;;;;;22.39;37.93;95956.69;5031121;28;20026;-66
2022/07/11 05:23:19;;;;;;;1999.90;999.90;;;;;;;22.58;37.01;95958.56;5030333;28;20505;-66
2022/07/11 05:25:44;;;;;;;1999.90;999.90;;;;;;;22.14;37.53;95958.16;5030406;28;20064;-66
2022/07/11 05:28:09;;;;;;;1999.90;999.90;;;;;;;21.93;37.91;95966.63;5012321;28;20462;-66
2022/07/11 05:30:34;;;;;;;1999.90;999.90;;;;;;;22.15;37.66;95967.84;5030162;28;20033;-66
2022/07/11 05:33:00;;;;;;;1999.90;999.90;;;;;;;22.47;37.44;95963.00;5029673;28;20086;-66
2022/07/11 05:35:25;;;;;;;1999.90;999.90;;;;;;;22.65;37.51;95961.41;5028901;28;20022;-66
2022/07/11 05:37:52;;;;;;;1999.90;999.90;;;;;;;22.88;37.46;95966.03;5031261;28;20075;-68
2022/07/11 05:40:17;;;;;;;1999.90;999.90;;;;;;;21.90;38.34;95972.75;5029923;28;20022;-66
2022/07/11 05:42:43;;;;;;;1999.90;999.90;;;;;;;20.96;39.59;95969.09;5030554;28;20089;-67
2022/07/11 05:45:09;;;;;;;1999.90;999.90;;;;;;;20.86;40.37;95965.00;5028983;28;20041;-66
2022/07/11 05:47:35;;;;;;;1999.90;999.90;;;;;;;21.17;40.50;95968.81;5030469;28;20062;-67
2022/07/11 05:50:00;;;;;;;1999.90;999.90;;;;;;;21.97;39.12;95962.06;5029623;28;20038;-67
2022/07/11 05:52:25;;;;;;;1999.90;999.90;;;;;;;21.26;40.20;95943.16;5030776;28;20500;-67
2022/07/11 05:54:50;;;;;;;1999.90;999.90;;;;;;;22.21;39.12;95977.25;5029985;28;20061;-65
2022/07/11 05:57:16;;;;;;;1999.90;999.90;;;;;;;21.41;39.83;95957.03;5028322;28;20037;-66
2022/07/11 05:59:41;;;;;;;1999.90;999.90;;;;;;;22.15;38.85;95973.25;5027574;28;20072;-66
2022/07/11 06:02:07;;;;;;;1999.90;999.90;;;;;;;22.38;38.07;95954.34;5028750;28;20029;-66
2022/07/11 06:04:33;;;;;;;1999.90;999.90;;;;;;;22.59;38.33;95965.56;5030890;28;20032;-67
2022/07/11 06:06:59;;;;;;;1999.90;999.90;;;;;;;22.54;37.91;95971.28;5029711;28;20481;-67
2022/07/11 06:09:24;;;;;;;1999.90;999.90;;;;;;;22.46;38.01;95964.94;5028841;28;20035;-67
2022/07/11 06:11:50;;;;;;;1999.90;999.90;;;;;;;20.93;39.65;95962.47;5014114;28;20022;-68
2022/07/11 06:14:16;;;;;;;1999.90;999.90;;;;;;;20.80;39.06;95960.22;5020358;28;20025;-67
2022/07/11 06:16:41;;;;;;;1999.90;999.90;;;;;;;20.88;39.25;95916.78;5029602;28;20064;-67
2022/07/11 06:19:07;;;;;;;1999.90;999.90;;;;;;;21.36;39.60;95951.88;5029380;28;20061;-67
2022/07/11 06:21:33;;;;;;;1999.90;999.90;;;;;;;21.36;39.55;95943.78;5030001;28;20540;-67
2022/07/11 06:23:59;;;;;;;1999.90;999.90;;;;;;;21.14;39.24;95974.94;5027302;28;20443;-67
2022/07/11 06:26:24;;;;;;;1999.90;999.90;;;;;;;20.06;41.92;95954.41;5025628;28;20148;-67
2022/07/11 06:28:50;;;;;;;1999.90;999.90;;;;;;;20.51;42.01;95954.88;5025360;28;20030;-68
2022/07/11 06:31:16;;;;;;;1999.90;999.90;;;;;;;20.81;40.63;95951.75;5026537;28;20025;-68
2022/07/11 06:33:42;;;;;;;1999.90;999.90;;;;;;;20.74;40.68;95962.41;5028410;28;20033;-66
2022/07/11 06:36:07;;;;;;;1999.90;999.90;;;;;;;21.46;40.98;95956.75;5028432;28;20539;-66
2022/07/11 06:38:34;;;;;;;1999.90;999.90;;;;;;;21.88;39.68;95964.19;5029380;28;20067;-66
2022/07/11 06:40:59;;;;;;;1999.90;999.90;;;;;;;22.10;38.89;95957.25;5029378;28;20029;-67
2022/07/11 06:43:25;;;;;;;1999.90;999.90;;;;;;;22.29;38.12;95960.00;5029356;28;20051;-67
2022/07/11 06:45:51;;;;;;;1999.90;999.90;;;;;;;21.04;39.00;95962.75;5026705;28;20027;-67
2022/07/11 06:48:17;;;;;;;1999.90;999.90;;;;;;;20.60;40.77;95952.00;5025461;28;20034;-67
2022/07/11 06:50:43;;;;;;;1999.90;999.90;;;;;;;21.42;39.88;95951.25;5013856;28;20035;-66
2022/07/11 06:53:08;;;;;;;1999.90;999.90;;;;;;;20.83;39.77;95949.50;5028744;28;20104;-67
2022/07/11 06:55:34;;;;;;;1999.90;999.90;;;;;;;21.45;39.03;95953.25;5026030;28;20034;-68
2022/07/11 06:57:59;;;;;;;1999.90;999.90;;;;;;;21.97;37.99;95951.22;5027962;28;20477;-68
2022/07/11 07:00:27;;;;;;;1999.90;999.90;;;;;;;22.30;37.91;95942.56;5027393;28;20080;-67
2022/07/11 07:02:54;;;;;;;1999.90;999.90;;;;;;;21.00;38.67;95957.25;5029605;28;20452;-68
2022/07/11 07:05:20;;;;;;;1999.90;999.90;;;;;;;20.72;39.24;95926.81;5026921;28;20029;-68
2022/07/11 07:07:45;;;;;;;1999.90;999.90;;;;;;;21.37;38.53;95966.97;5016915;28;20515;-67
2022/07/11 07:10:11;;;;;;;1999.90;999.90;;;;;;;22.15;37.27;95952.38;5027723;28;20060;-69
2022/07/11 07:12:40;;;;;;;1999.90;999.90;;;;;;;22.28;36.54;95961.91;5026375;28;20030;-69
2022/07/11 07:15:06;;;;;;;1999.90;999.90;;;;;;;21.36;38.26;95968.13;5028531;28;20021;-68
2022/07/11 07:17:31;;;;;;;1999.90;999.90;;;;;;;21.27;38.60;95962.88;5028265;28;20097;-69
2022/07/11 07:19:57;;;;;;;1999.90;999.90;;;;;;;22.44;36.40;95947.47;5029822;28;20108;-68
2022/07/11 07:22:22;;;;;;;1999.90;999.90;;;;;;;23.72;34.69;95959.56;5022552;28;20049;-68
2022/07/11 07:24:48;;;;;;;1999.90;999.90;;;;;;;22.89;35.29;95965.72;5024055;28;20068;-68
2022/07/11 07:27:14;;;;;;;1999.90;999.90;;;;;;;22.19;36.58;95955.94;5025482;28;20034;-67
2022/07/11 07:29:40;;;;;;;1999.90;999.90;;;;;;;20.91;37.67;95934.22;5016129;28;20037;-68
2022/07/11 07:32:06;;;;;;;1999.90;999.90;;;;;;;21.58;36.50;95969.38;5027604;28;20092;-67
2022/07/11 07:34:32;;;;;;;1999.90;999.90;;;;;;;22.66;34.84;95949.41;5029207;28;20021;-68
2022/07/11 07:36:58;;;;;;;1999.90;999.90;;;;;;;23.08;34.89;95965.63;5026550;28;20485;-67
2022/07/11 07:39:23;;;;;;;1999.90;999.90;;;;;;;21.83;35.88;95932.75;5015744;28;20045;-68
2022/07/11 07:41:49;;;;;;;1999.90;999.90;;;;;;;22.59;36.04;95954.72;5023029;28;20029;-68
2022/07/11 07:44:15;;;;;;;1999.90;999.90;;;;;;;22.86;36.05;95958.25;5024952;28;20108;-68
2022/07/11 07:46:41;;;;;;;1999.90;999.90;;;;;;;22.70;34.69;95958.38;5027525;28;20030;-70
2022/07/11 07:49:06;;;;;;;1999.90;999.90;;;;;;;23.79;33.57;95908.03;5027650;28;20417;-70
2022/07/11 07:51:32;;;;;;;1999.90;999.90;;;;;;;22.20;36.29;95916.06;5010974;28;20037;-71
2022/07/11 07:53:57;;;;;;;1999.90;999.90;;;;;;;24.04;33.30;95946.38;5028387;28;20036;-69
2022/07/11 07:56:24;;;;;;;1999.90;999.90;;;;;;;24.13;33.26;95936.75;5028315;28;20034;-71
2022/07/11 07:58:51;;;;;;;1999.90;999.90;;;;;;;22.31;35.45;95906.97;5026470;28;20033;-71
2022/07/11 08:01:34;;;;;;;1999.90;999.90;;;;;;;22.38;36.05;95957.06;5028013;28;20427;-71
2022/07/11 08:04:04;;;;;;;1999.90;999.90;;;;;;;21.07;38.05;95926.84;5027827;28;20030;-71
2022/07/11 08:06:30;;;;;;;1999.90;999.90;;;;;;;21.85;37.25;95952.13;5027279;28;20052;-70
2022/07/11 08:08:55;;;;;;;1999.90;999.90;;;;;;;21.87;36.93;95955.28;5030939;28;20049;-70
2022/07/11 08:11:21;;;;;;;1999.90;999.90;;;;;;;21.93;35.83;95958.50;5032323;28;20100;-69
2022/07/11 08:13:46;;;;;;;1999.90;999.90;;;;;;;21.44;37.25;95956.31;5030088;28;20056;-70
2022/07/11 08:16:12;;;;;;;1999.90;999.90;;;;;;;21.87;36.46;95952.59;5031647;28;20429;-70
2022/07/11 08:18:37;;;;;;;1999.90;999.90;;;;;;;22.80;34.10;95944.22;5032868;28;20045;-70
2022/07/11 08:21:03;;;;;;;1999.90;999.90;;;;;;;22.80;34.98;95960.50;5032152;28;20037;-69
2022/07/11 08:23:28;;;;;;;1999.90;999.90;;;;;;;23.45;33.56;95950.66;5032656;28;20529;-69
2022/07/11 08:25:53;;;;;;;1999.90;999.90;;;;;;;23.45;34.42;95950.66;5031022;28;20025;-70
2022/07/11 08:28:19;;;;;;;1999.90;999.90;;;;;;;22.31;36.37;95947.63;5031286;28;20121;-70
2022/07/11 08:30:45;;;;;;;1999.90;999.90;;;;;;;22.99;35.23;95950.75;5032279;28;20113;-70
2022/07/11 08:33:10;;;;;;;1999.90;999.90;;;;;;;22.56;35.10;95960.84;5032095;28;20076;-69
2022/07/11 08:35:36;;;;;;;1999.90;999.90;;;;;;;23.46;33.97;95957.63;5032524;28;20424;-70
2022/07/11 08:38:01;;;;;;;1999.90;999.90;;;;;;;22.89;34.00;95963.00;5032372;28;20056;-71
2022/07/11 08:40:27;;;;;;;1999.90;999.90;;;;;;;22.56;34.41;95960.84;5031972;28;20029;-70
2022/07/11 08:42:55;;;;;;;1999.90;999.90;;;;;;;23.78;32.74;95953.44;5031358;28;20025;-70
2022/07/11 08:45:28;;;;;;;1999.90;999.90;;;;;;;21.28;36.71;95964.44;5032296;28;20021;-70
2022/07/11 08:47:54;;;;;;;1999.90;999.90;;;;;;;21.64;36.09;95968.72;5031135;28;20025;-70
2022/07/11 08:50:21;;;;;;;1999.90;999.90;;;;;;;22.28;35.68;95966.56;5031853;28;20104;-70
2022/07/11 08:52:46;;;;;;;1999.90;999.90;;;;;;;22.40;35.52;95955.53;5032362;28;20032;-70
2022/07/11 08:55:12;;;;;;;1999.90;999.90;;;;;;;22.29;36.41;95951.84;5032002;28;20029;-70
2022/07/11 08:57:37;;;;;;;1999.90;999.90;;;;;;;22.40;36.78;95958.25;5030402;28;20013;-70
2022/07/11 09:00:06;;;;;;;1999.90;999.90;;;;;;;21.90;37.65;95968.09;5030668;28;20021;-69
2022/07/11 09:02:33;;;;;;;1999.90;999.90;;;;;;;21.70;38.46;95961.91;5017508;28;20076;-70
2022/07/11 09:05:00;;;;;;;1999.90;999.90;;;;;;;22.10;37.43;95955.34;5030331;28;20029;-70
2022/07/11 09:07:26;;;;;;;1999.90;999.90;;;;;;;22.69;36.83;95950.63;5031827;28;20527;-70
2022/07/11 09:09:52;;;;;;;1999.90;999.90;;;;;;;22.75;36.93;95952.66;5030470;28;20034;-70
2022/07/11 09:12:18;;;;;;;1999.90;999.90;;;;;;;22.28;38.37;95956.50;5028795;28;20032;-69
2022/07/11 09:14:51;;;;;;;1999.90;999.90;;;;;;;23.16;36.93;95954.88;5030709;28;20544;-70
2022/07/11 09:17:24;;;;;;;1999.90;999.90;;;;;;;22.18;38.06;95956.31;5028917;28;20429;-70
2022/07/11 09:19:51;;;;;;;1999.90;999.90;;;;;;;23.01;37.19;95953.88;5030863;28;20017;-70
2022/07/11 09:25:21;;;;;;;1999.90;999.90;;;;;;;21.75;38.21;95958.94;5028556;28;20036;-70
2022/07/11 09:27:52;;;;;;;1999.90;999.90;;;;;;;22.40;37.03;95946.63;5030623;28;20492;-69
2022/07/11 09:30:17;;;;;;;1999.90;999.90;;;;;;;23.23;35.88;95938.69;5030033;28;20214;-69
2022/07/11 09:32:55;;;;;;;1999.90;999.90;;;;;;;24.17;34.91;95947.69;5030172;28;20589;-70
2022/07/11 09:35:22;;;;;;;1999.90;999.90;;;;;;;24.14;34.60;95951.13;5030260;28;20101;-70
2022/07/11 09:37:48;;;;;;;1999.90;999.90;;;;;;;24.05;34.53;95939.78;5028222;28;20036;-70
2022/07/11 09:40:15;;;;;;;1999.90;999.90;;;;;;;23.33;35.52;95949.69;5029862;28;20021;-70
2022/07/11 09:42:48;;;;;;;1999.90;999.90;;;;;;;23.55;35.16;95950.78;5028655;28;20032;-71
2022/07/11 09:45:14;;;;;;;1999.90;999.90;;;;;;;24.47;34.00;95947.66;5029969;28;20086;-70
2022/07/11 09:47:49;;;;;;;1999.90;999.90;;;;;;;21.94;37.29;95963.53;5031140;28;20026;-71
2022/07/11 09:50:23;;;;;;;1999.90;999.90;;;;;;;21.80;37.76;95958.66;5030893;28;20026;-70
2022/07/11 09:53:10;;;;;;;1999.90;999.90;;;;;;;22.02;37.38;95959.84;5031140;28;20116;-71
2022/07/11 09:55:37;;;;;;;1999.90;999.90;;;;;;;22.04;36.85;95949.44;5030296;28;20075;-70
2022/07/11 09:58:09;;;;;;;1999.90;999.90;;;;;;;21.89;37.64;95947.56;5028209;28;20036;-70
2022/07/11 10:00:36;;;;;;;1999.90;999.90;;;;;;;22.64;36.44;95957.13;5030552;28;20565;-70
2022/07/11 10:03:03;;;;;;;1999.90;999.90;;;;;;;24.22;33.86;95950.06;5028956;28;20033;-70
2022/07/11 10:05:30;;;;;;;1999.90;999.90;;;;;;;24.78;33.03;95938.19;5030952;28;20058;-70
2022/07/11 10:07:57;;;;;;;1999.90;999.90;;;;;;;24.14;34.31;95951.13;5030857;28;20037;-70
2022/07/11 10:10:23;;;;;;;1999.90;999.90;;;;;;;23.66;35.39;95947.47;5030434;28;20040;-70
2022/07/11 10:12:53;;;;;;;1999.90;999.90;;;;;;;23.85;34.17;95958.97;5027333;28;20033;-72
2022/07/11 10:15:34;;;;;;;1999.90;999.90;;;;;;;23.59;34.86;95961.69;5029619;28;20081;-71
2022/07/11 10:18:03;;;;;;;1999.90;999.90;;;;;;;23.99;34.08;95957.56;5030931;28;20049;-69
2022/07/11 10:20:49;;;;;;;1999.90;999.90;;;;;;;25.61;31.32;95951.22;5030564;28;20232;-70
2022/07/11 10:23:38;;;;;;;1999.90;999.90;;;;;;;25.97;31.10;95942.47;5029544;28;20033;-70
2022/07/11 10:26:24;;;;;;;1999.90;999.90;;;;;;;26.02;30.94;95953.78;5028554;28;20497;-72
2022/07/11 10:28:55;;;;;;;1999.90;999.90;;;;;;;23.46;33.74;95955.72;5026874;28;20382;-71
2022/07/11 10:31:22;;;;;;;1999.90;999.90;;;;;;;24.65;32.16;95955.94;5029521;28;20052;-70
2022/07/11 10:34:06;;;;;;;1999.90;999.90;;;;;;;24.95;32.02;95957.75;5029757;28;20033;-70
2022/07/11 10:36:34;;;;;;;1999.90;999.90;;;;;;;25.48;31.42;95952.72;5029013;28;20071;-70
2022/07/11 10:39:12;;;;;;;1999.90;999.90;;;;;;;24.21;33.13;95961.28;5030183;28;20025;-69
2022/07/11 10:41:38;;;;;;;1999.90;999.90;;;;;;;24.64;32.82;95965.28;5027911;28;20769;-69
2022/07/11 10:44:04;;;;;;;1999.90;999.90;;;;;;;23.10;34.98;95954.41;5029359;28;20064;-69
2022/07/11 10:46:29;;;;;;;1999.90;999.90;;;;;;;22.10;37.25;95947.22;5031593;28;20029;-73
2022/07/11 10:49:04;;;;;;;1999.90;999.90;;;;;;;22.05;37.97;95972.66;5029872;28;20084;-70
2022/07/11 10:51:44;;;;;;;1999.90;999.90;;;;;;;22.84;35.96;95961.34;5029442;28;20771;-70
2022/07/11 10:54:18;;;;;;;1999.90;999.90;;;;;;;24.17;34.73;95965.94;5030147;28;20026;-69